sensor_id;sensor_type;location;lat;lon;timestamp;P1;durP1;ratioP1;P2;durP2;ratioP2
66830;SDS011;53739;44.224;22.528;2024-01-16T00:01:28;103.45;;;47.20;;
66830;SDS011;53739;44.224;22.528;2024-01-16T00:03:54;273.83;;;101.93;;
66830;SDS011;53739;44.224;22.528;2024-01-16T00:06:20;202.07;;;89.50;;
66830;SDS011;53739;44.224;22.528;2024-01-16T00:08:46;142.90;;;70.28;;
66830;SDS011;53739;44.224;22.528;2024-01-16T00:11:12;140.68;;;65.38;;
66830;SDS011;53739;44.224;22.528;2024-01-16T00:13:39;131.23;;;63.10;;
66830;SDS011;53739;44.224;22.528;2024-01-16T00:16:05;140.02;;;67.88;;
66830;SDS011;53739;44.224;22.528;2024-01-16T00:18:31;142.10;;;67.93;;
66830;SDS011;53739;44.224;22.528;2024-01-16T00:20:57;88.68;;;39.85;;
66830;SDS011;53739;44.224;22.528;2024-01-16T00:23:23;58.88;;;24.60;;
66830;SDS011;53739;44.224;22.528;2024-01-16T00:25:50;52.40;;;29.33;;
66830;SDS011;53739;44.224;22.528;2024-01-16T00:28:16;29.73;;;18.63;;
66830;SDS011;53739;44.224;22.528;2024-01-16T00:30:44;17.88;;;10.75;;
66830;SDS011;53739;44.224;22.528;2024-01-16T00:33:10;16.42;;;10.45;;
66830;SDS011;53739;44.224;22.528;2024-01-16T00:35:37;13.10;;;8.35;;
66830;SDS011;53739;44.224;22.528;2024-01-16T00:38:03;49.58;;;19.55;;
66830;SDS011;53739;44.224;22.528;2024-01-16T00:40:29;27.02;;;16.98;;
66830;SDS011;53739;44.224;22.528;2024-01-16T00:42:55;11.52;;;6.55;;
66830;SDS011;53739;44.224;22.528;2024-01-16T00:45:22;20.30;;;9.93;;
66830;SDS011;53739;44.224;22.528;2024-01-16T00:47:48;26.55;;;11.18;;
66830;SDS011;53739;44.224;22.528;2024-01-16T00:50:14;19.90;;;11.98;;
66830;SDS011;53739;44.224;22.528;2024-01-16T00:52:40;18.52;;;10.82;;
66830;SDS011;53739;44.224;22.528;2024-01-16T00:55:06;23.35;;;12.52;;
66830;SDS011;53739;44.224;22.528;2024-01-16T00:57:32;31.77;;;14.40;;
66830;SDS011;53739;44.224;22.528;2024-01-16T00:59:58;38.33;;;17.92;;
66830;SDS011;53739;44.224;22.528;2024-01-16T01:02:25;27.35;;;12.52;;
66830;SDS011;53739;44.224;22.528;2024-01-16T01:04:51;28.70;;;14.45;;
66830;SDS011;53739;44.224;22.528;2024-01-16T01:07:17;62.58;;;23.08;;
66830;SDS011;53739;44.224;22.528;2024-01-16T01:09:43;58.63;;;22.42;;
66830;SDS011;53739;44.224;22.528;2024-01-16T01:12:09;51.47;;;18.80;;
66830;SDS011;53739;44.224;22.528;2024-01-16T01:14:35;24.67;;;9.82;;
66830;SDS011;53739;44.224;22.528;2024-01-16T01:17:02;49.35;;;18.50;;
66830;SDS011;53739;44.224;22.528;2024-01-16T01:19:28;152.70;;;48.95;;
66830;SDS011;53739;44.224;22.528;2024-01-16T01:21:54;78.93;;;25.55;;
66830;SDS011;53739;44.224;22.528;2024-01-16T01:24:20;60.13;;;21.80;;
66830;SDS011;53739;44.224;22.528;2024-01-16T01:26:46;120.47;;;38.47;;
66830;SDS011;53739;44.224;22.528;2024-01-16T01:29:12;75.55;;;23.58;;
66830;SDS011;53739;44.224;22.528;2024-01-16T01:31:38;99.50;;;32.05;;
66830;SDS011;53739;44.224;22.528;2024-01-16T01:34:04;73.53;;;23.73;;
66830;SDS011;53739;44.224;22.528;2024-01-16T01:36:32;39.70;;;14.45;;
66830;SDS011;53739;44.224;22.528;2024-01-16T01:38:58;51.40;;;18.20;;
66830;SDS011;53739;44.224;22.528;2024-01-16T01:41:24;49.78;;;18.23;;
66830;SDS011;53739;44.224;22.528;2024-01-16T01:43:50;30.60;;;10.10;;
66830;SDS011;53739;44.224;22.528;2024-01-16T01:46:17;36.75;;;12.35;;
66830;SDS011;53739;44.224;22.528;2024-01-16T01:48:44;88.47;;;27.80;;
66830;SDS011;53739;44.224;22.528;2024-01-16T01:51:14;51.50;;;18.90;;
66830;SDS011;53739;44.224;22.528;2024-01-16T01:53:44;85.82;;;23.50;;
66830;SDS011;53739;44.224;22.528;2024-01-16T01:56:11;160.18;;;45.42;;
66830;SDS011;53739;44.224;22.528;2024-01-16T01:58:37;159.18;;;50.63;;
66830;SDS011;53739;44.224;22.528;2024-01-16T02:01:03;78.43;;;36.40;;
66830;SDS011;53739;44.224;22.528;2024-01-16T02:03:32;49.80;;;24.15;;
66830;SDS011;53739;44.224;22.528;2024-01-16T02:06:00;21.10;;;10.43;;
66830;SDS011;53739;44.224;22.528;2024-01-16T02:08:27;63.30;;;29.25;;
66830;SDS011;53739;44.224;22.528;2024-01-16T02:10:53;98.28;;;37.80;;
66830;SDS011;53739;44.224;22.528;2024-01-16T02:13:20;54.45;;;19.65;;
66830;SDS011;53739;44.224;22.528;2024-01-16T02:15:48;55.55;;;24.00;;
66830;SDS011;53739;44.224;22.528;2024-01-16T02:18:15;49.60;;;21.80;;
66830;SDS011;53739;44.224;22.528;2024-01-16T02:20:41;33.78;;;17.40;;
66830;SDS011;53739;44.224;22.528;2024-01-16T02:23:08;30.90;;;13.02;;
66830;SDS011;53739;44.224;22.528;2024-01-16T02:25:36;116.07;;;40.25;;
66830;SDS011;53739;44.224;22.528;2024-01-16T02:28:02;41.97;;;17.63;;
66830;SDS011;53739;44.224;22.528;2024-01-16T02:30:28;34.05;;;14.23;;
66830;SDS011;53739;44.224;22.528;2024-01-16T02:32:55;40.47;;;15.48;;
66830;SDS011;53739;44.224;22.528;2024-01-16T02:35:21;49.42;;;16.75;;
66830;SDS011;53739;44.224;22.528;2024-01-16T02:37:47;46.00;;;18.77;;
66830;SDS011;53739;44.224;22.528;2024-01-16T02:40:13;55.05;;;20.23;;
66830;SDS011;53739;44.224;22.528;2024-01-16T02:42:39;35.60;;;16.35;;
66830;SDS011;53739;44.224;22.528;2024-01-16T02:45:06;41.95;;;18.67;;
66830;SDS011;53739;44.224;22.528;2024-01-16T02:47:32;39.38;;;17.50;;
66830;SDS011;53739;44.224;22.528;2024-01-16T02:49:59;61.95;;;24.45;;
66830;SDS011;53739;44.224;22.528;2024-01-16T02:52:25;70.60;;;28.75;;
66830;SDS011;53739;44.224;22.528;2024-01-16T02:54:51;36.47;;;15.13;;
66830;SDS011;53739;44.224;22.528;2024-01-16T02:57:17;19.95;;;9.43;;
66830;SDS011;53739;44.224;22.528;2024-01-16T02:59:43;62.92;;;26.73;;
66830;SDS011;53739;44.224;22.528;2024-01-16T03:02:10;95.72;;;37.85;;
66830;SDS011;53739;44.224;22.528;2024-01-16T03:04:36;32.35;;;16.70;;
66830;SDS011;53739;44.224;22.528;2024-01-16T03:07:02;40.63;;;16.73;;
66830;SDS011;53739;44.224;22.528;2024-01-16T03:09:29;54.63;;;22.83;;
66830;SDS011;53739;44.224;22.528;2024-01-16T03:11:55;23.88;;;10.75;;
66830;SDS011;53739;44.224;22.528;2024-01-16T03:14:21;57.67;;;24.38;;
66830;SDS011;53739;44.224;22.528;2024-01-16T03:16:47;24.20;;;11.02;;
66830;SDS011;53739;44.224;22.528;2024-01-16T03:19:13;49.40;;;20.27;;
66830;SDS011;53739;44.224;22.528;2024-01-16T03:21:39;25.92;;;11.38;;
66830;SDS011;53739;44.224;22.528;2024-01-16T03:24:06;41.95;;;17.73;;
66830;SDS011;53739;44.224;22.528;2024-01-16T03:26:32;27.10;;;14.15;;
66830;SDS011;53739;44.224;22.528;2024-01-16T03:28:58;19.70;;;10.90;;
66830;SDS011;53739;44.224;22.528;2024-01-16T03:31:25;47.92;;;21.70;;
66830;SDS011;53739;44.224;22.528;2024-01-16T03:33:51;15.00;;;7.63;;
66830;SDS011;53739;44.224;22.528;2024-01-16T03:36:17;16.70;;;8.35;;
66830;SDS011;53739;44.224;22.528;2024-01-16T03:38:43;32.42;;;14.55;;
66830;SDS011;53739;44.224;22.528;2024-01-16T03:41:13;39.05;;;17.80;;
66830;SDS011;53739;44.224;22.528;2024-01-16T03:43:39;25.77;;;12.57;;
66830;SDS011;53739;44.224;22.528;2024-01-16T03:46:05;18.73;;;9.02;;
66830;SDS011;53739;44.224;22.528;2024-01-16T03:48:32;19.85;;;10.10;;
66830;SDS011;53739;44.224;22.528;2024-01-16T03:50:58;17.35;;;9.40;;
66830;SDS011;53739;44.224;22.528;2024-01-16T03:53:25;27.58;;;14.88;;
66830;SDS011;53739;44.224;22.528;2024-01-16T03:55:51;14.38;;;8.40;;
66830;SDS011;53739;44.224;22.528;2024-01-16T03:58:17;7.88;;;4.80;;
66830;SDS011;53739;44.224;22.528;2024-01-16T04:00:44;17.83;;;6.28;;
66830;SDS011;53739;44.224;22.528;2024-01-16T04:03:10;21.55;;;8.13;;
66830;SDS011;53739;44.224;22.528;2024-01-16T04:05:36;12.48;;;4.75;;
66830;SDS011;53739;44.224;22.528;2024-01-16T04:08:03;34.08;;;13.50;;
66830;SDS011;53739;44.224;22.528;2024-01-16T04:10:29;20.67;;;7.18;;
66830;SDS011;53739;44.224;22.528;2024-01-16T04:12:55;9.07;;;4.43;;
66830;SDS011;53739;44.224;22.528;2024-01-16T04:15:21;8.45;;;3.80;;
66830;SDS011;53739;44.224;22.528;2024-01-16T04:17:47;5.70;;;3.25;;
66830;SDS011;53739;44.224;22.528;2024-01-16T04:20:13;11.18;;;4.47;;
66830;SDS011;53739;44.224;22.528;2024-01-16T04:22:40;7.65;;;4.20;;
66830;SDS011;53739;44.224;22.528;2024-01-16T04:25:06;9.18;;;3.47;;
66830;SDS011;53739;44.224;22.528;2024-01-16T04:27:33;5.47;;;2.53;;
66830;SDS011;53739;44.224;22.528;2024-01-16T04:29:59;5.47;;;2.42;;
66830;SDS011;53739;44.224;22.528;2024-01-16T04:32:25;5.70;;;2.53;;
66830;SDS011;53739;44.224;22.528;2024-01-16T04:34:51;6.32;;;3.30;;
66830;SDS011;53739;44.224;22.528;2024-01-16T04:37:17;6.57;;;2.80;;
66830;SDS011;53739;44.224;22.528;2024-01-16T04:39:43;5.18;;;2.50;;
66830;SDS011;53739;44.224;22.528;2024-01-16T04:42:09;4.78;;;3.10;;
66830;SDS011;53739;44.224;22.528;2024-01-16T04:44:36;4.70;;;2.83;;
66830;SDS011;53739;44.224;22.528;2024-01-16T04:47:02;5.30;;;2.97;;
66830;SDS011;53739;44.224;22.528;2024-01-16T04:49:29;5.88;;;3.13;;
66830;SDS011;53739;44.224;22.528;2024-01-16T04:51:55;4.47;;;2.88;;
66830;SDS011;53739;44.224;22.528;2024-01-16T04:54:21;6.13;;;3.40;;
66830;SDS011;53739;44.224;22.528;2024-01-16T04:56:47;11.82;;;4.72;;
66830;SDS011;53739;44.224;22.528;2024-01-16T04:59:13;10.48;;;4.25;;
66830;SDS011;53739;44.224;22.528;2024-01-16T05:01:39;4.75;;;2.65;;
66830;SDS011;53739;44.224;22.528;2024-01-16T05:04:05;9.75;;;3.63;;
66830;SDS011;53739;44.224;22.528;2024-01-16T05:06:33;9.45;;;3.67;;
66830;SDS011;53739;44.224;22.528;2024-01-16T05:08:59;3.55;;;2.33;;
66830;SDS011;53739;44.224;22.528;2024-01-16T05:11:25;8.18;;;3.38;;
66830;SDS011;53739;44.224;22.528;2024-01-16T05:13:52;12.52;;;3.70;;
66830;SDS011;53739;44.224;22.528;2024-01-16T05:16:25;16.35;;;5.00;;
66830;SDS011;53739;44.224;22.528;2024-01-16T05:18:52;11.27;;;4.85;;
66830;SDS011;53739;44.224;22.528;2024-01-16T05:21:19;11.70;;;5.00;;
66830;SDS011;53739;44.224;22.528;2024-01-16T05:23:45;13.52;;;5.72;;
66830;SDS011;53739;44.224;22.528;2024-01-16T05:26:12;13.32;;;6.43;;
66830;SDS011;53739;44.224;22.528;2024-01-16T05:28:38;14.07;;;5.72;;
66830;SDS011;53739;44.224;22.528;2024-01-16T05:31:05;15.43;;;6.30;;
66830;SDS011;53739;44.224;22.528;2024-01-16T05:33:32;16.15;;;6.18;;
66830;SDS011;53739;44.224;22.528;2024-01-16T05:35:58;15.85;;;6.43;;
66830;SDS011;53739;44.224;22.528;2024-01-16T05:38:24;11.02;;;6.78;;
66830;SDS011;53739;44.224;22.528;2024-01-16T05:40:50;8.82;;;5.43;;
66830;SDS011;53739;44.224;22.528;2024-01-16T05:43:17;24.85;;;21.00;;
66830;SDS011;53739;44.224;22.528;2024-01-16T05:45:43;15.02;;;7.20;;
66830;SDS011;53739;44.224;22.528;2024-01-16T05:48:09;16.10;;;7.05;;
66830;SDS011;53739;44.224;22.528;2024-01-16T05:50:36;26.55;;;11.40;;
66830;SDS011;53739;44.224;22.528;2024-01-16T05:53:02;12.90;;;6.20;;
66830;SDS011;53739;44.224;22.528;2024-01-16T05:55:29;12.02;;;5.25;;
66830;SDS011;53739;44.224;22.528;2024-01-16T05:57:57;9.98;;;5.20;;
66830;SDS011;53739;44.224;22.528;2024-01-16T06:00:26;13.85;;;6.45;;
66830;SDS011;53739;44.224;22.528;2024-01-16T06:02:52;9.35;;;4.60;;
66830;SDS011;53739;44.224;22.528;2024-01-16T06:05:19;14.80;;;6.28;;
66830;SDS011;53739;44.224;22.528;2024-01-16T06:07:45;7.95;;;4.60;;
66830;SDS011;53739;44.224;22.528;2024-01-16T06:10:12;8.00;;;4.32;;
66830;SDS011;53739;44.224;22.528;2024-01-16T06:12:41;10.27;;;5.05;;
66830;SDS011;53739;44.224;22.528;2024-01-16T06:15:07;10.45;;;6.63;;
66830;SDS011;53739;44.224;22.528;2024-01-16T06:17:34;10.27;;;5.88;;
66830;SDS011;53739;44.224;22.528;2024-01-16T06:20:00;7.68;;;4.07;;
66830;SDS011;53739;44.224;22.528;2024-01-16T06:22:26;10.48;;;5.20;;
66830;SDS011;53739;44.224;22.528;2024-01-16T06:24:52;10.07;;;4.40;;
66830;SDS011;53739;44.224;22.528;2024-01-16T06:27:18;17.55;;;6.93;;
66830;SDS011;53739;44.224;22.528;2024-01-16T06:29:45;12.02;;;6.28;;
66830;SDS011;53739;44.224;22.528;2024-01-16T06:32:11;15.88;;;6.55;;
66830;SDS011;53739;44.224;22.528;2024-01-16T06:34:37;14.68;;;8.07;;
66830;SDS011;53739;44.224;22.528;2024-01-16T06:37:03;16.00;;;8.45;;
66830;SDS011;53739;44.224;22.528;2024-01-16T06:39:30;19.60;;;9.65;;
66830;SDS011;53739;44.224;22.528;2024-01-16T06:41:56;26.73;;;12.40;;
66830;SDS011;53739;44.224;22.528;2024-01-16T06:44:22;33.38;;;11.82;;
66830;SDS011;53739;44.224;22.528;2024-01-16T06:46:48;25.42;;;11.32;;
66830;SDS011;53739;44.224;22.528;2024-01-16T06:49:14;27.92;;;13.18;;
66830;SDS011;53739;44.224;22.528;2024-01-16T06:51:40;28.35;;;10.80;;
66830;SDS011;53739;44.224;22.528;2024-01-16T06:54:06;21.52;;;8.55;;
66830;SDS011;53739;44.224;22.528;2024-01-16T06:56:32;35.85;;;12.68;;
66830;SDS011;53739;44.224;22.528;2024-01-16T06:58:58;58.17;;;16.77;;
66830;SDS011;53739;44.224;22.528;2024-01-16T07:01:25;60.72;;;23.25;;
66830;SDS011;53739;44.224;22.528;2024-01-16T07:03:52;70.10;;;28.23;;
66830;SDS011;53739;44.224;22.528;2024-01-16T07:06:18;37.92;;;15.57;;
66830;SDS011;53739;44.224;22.528;2024-01-16T07:08:47;27.02;;;13.63;;
66830;SDS011;53739;44.224;22.528;2024-01-16T07:11:13;149.35;;;54.97;;
66830;SDS011;53739;44.224;22.528;2024-01-16T07:13:40;46.00;;;20.75;;
66830;SDS011;53739;44.224;22.528;2024-01-16T07:16:09;15.93;;;9.23;;
66830;SDS011;53739;44.224;22.528;2024-01-16T07:18:37;25.08;;;9.82;;
66830;SDS011;53739;44.224;22.528;2024-01-16T07:21:03;35.20;;;18.33;;
66830;SDS011;53739;44.224;22.528;2024-01-16T07:23:29;18.08;;;9.63;;
66830;SDS011;53739;44.224;22.528;2024-01-16T07:25:56;18.98;;;11.65;;
66830;SDS011;53739;44.224;22.528;2024-01-16T07:28:22;15.23;;;9.52;;
66830;SDS011;53739;44.224;22.528;2024-01-16T07:30:48;27.13;;;12.63;;
66830;SDS011;53739;44.224;22.528;2024-01-16T07:33:14;77.93;;;27.38;;
66830;SDS011;53739;44.224;22.528;2024-01-16T07:35:40;17.88;;;10.25;;
66830;SDS011;53739;44.224;22.528;2024-01-16T07:38:09;75.70;;;30.63;;
66830;SDS011;53739;44.224;22.528;2024-01-16T07:40:35;19.83;;;9.90;;
66830;SDS011;53739;44.224;22.528;2024-01-16T07:43:01;15.00;;;8.45;;
66830;SDS011;53739;44.224;22.528;2024-01-16T07:45:29;15.68;;;9.32;;
66830;SDS011;53739;44.224;22.528;2024-01-16T07:47:56;16.23;;;8.38;;
66830;SDS011;53739;44.224;22.528;2024-01-16T07:50:22;16.85;;;8.68;;
66830;SDS011;53739;44.224;22.528;2024-01-16T07:52:48;18.08;;;10.48;;
66830;SDS011;53739;44.224;22.528;2024-01-16T07:55:14;26.02;;;10.80;;
66830;SDS011;53739;44.224;22.528;2024-01-16T07:57:40;16.98;;;6.70;;
66830;SDS011;53739;44.224;22.528;2024-01-16T08:00:06;23.55;;;10.40;;
66830;SDS011;53739;44.224;22.528;2024-01-16T08:02:37;14.27;;;8.00;;
66830;SDS011;53739;44.224;22.528;2024-01-16T08:05:03;25.35;;;10.70;;
66830;SDS011;53739;44.224;22.528;2024-01-16T08:07:29;23.75;;;9.95;;
66830;SDS011;53739;44.224;22.528;2024-01-16T08:09:56;19.65;;;9.48;;
66830;SDS011;53739;44.224;22.528;2024-01-16T08:12:22;27.98;;;10.52;;
66830;SDS011;53739;44.224;22.528;2024-01-16T08:14:49;54.38;;;18.55;;
66830;SDS011;53739;44.224;22.528;2024-01-16T08:17:15;19.08;;;9.57;;
66830;SDS011;53739;44.224;22.528;2024-01-16T08:19:41;11.73;;;6.85;;
66830;SDS011;53739;44.224;22.528;2024-01-16T08:22:07;22.10;;;10.05;;
66830;SDS011;53739;44.224;22.528;2024-01-16T08:24:33;37.83;;;11.55;;
66830;SDS011;53739;44.224;22.528;2024-01-16T08:26:59;16.50;;;9.60;;
66830;SDS011;53739;44.224;22.528;2024-01-16T08:29:25;25.15;;;11.82;;
66830;SDS011;53739;44.224;22.528;2024-01-16T08:31:51;23.55;;;12.25;;
66830;SDS011;53739;44.224;22.528;2024-01-16T08:34:18;22.00;;;10.75;;
66830;SDS011;53739;44.224;22.528;2024-01-16T08:36:44;25.23;;;10.48;;
66830;SDS011;53739;44.224;22.528;2024-01-16T08:39:10;22.67;;;10.07;;
66830;SDS011;53739;44.224;22.528;2024-01-16T08:41:36;37.55;;;14.23;;
66830;SDS011;53739;44.224;22.528;2024-01-16T08:44:02;26.80;;;12.40;;
66830;SDS011;53739;44.224;22.528;2024-01-16T08:46:29;21.58;;;10.52;;
66830;SDS011;53739;44.224;22.528;2024-01-16T08:48:56;21.00;;;10.35;;
66830;SDS011;53739;44.224;22.528;2024-01-16T08:51:22;47.35;;;19.60;;
66830;SDS011;53739;44.224;22.528;2024-01-16T08:53:48;24.38;;;13.57;;
66830;SDS011;53739;44.224;22.528;2024-01-16T08:56:14;22.33;;;10.52;;
66830;SDS011;53739;44.224;22.528;2024-01-16T08:58:42;22.63;;;13.18;;
66830;SDS011;53739;44.224;22.528;2024-01-16T09:01:08;39.65;;;16.77;;
66830;SDS011;53739;44.224;22.528;2024-01-16T09:03:35;82.03;;;32.63;;
66830;SDS011;53739;44.224;22.528;2024-01-16T09:06:01;29.17;;;15.43;;
66830;SDS011;53739;44.224;22.528;2024-01-16T09:08:27;29.15;;;11.75;;
66830;SDS011;53739;44.224;22.528;2024-01-16T09:10:54;49.72;;;21.20;;
66830;SDS011;53739;44.224;22.528;2024-01-16T09:13:20;67.25;;;28.45;;
66830;SDS011;53739;44.224;22.528;2024-01-16T09:15:47;122.78;;;51.85;;
66830;SDS011;53739;44.224;22.528;2024-01-16T09:18:14;152.43;;;65.25;;
66830;SDS011;53739;44.224;22.528;2024-01-16T09:20:41;29.13;;;15.50;;
66830;SDS011;53739;44.224;22.528;2024-01-16T09:23:07;14.00;;;8.32;;
66830;SDS011;53739;44.224;22.528;2024-01-16T09:25:34;22.52;;;11.32;;
66830;SDS011;53739;44.224;22.528;2024-01-16T09:28:00;20.48;;;9.98;;
66830;SDS011;53739;44.224;22.528;2024-01-16T09:30:27;11.18;;;6.10;;
66830;SDS011;53739;44.224;22.528;2024-01-16T09:32:53;14.98;;;7.82;;
66830;SDS011;53739;44.224;22.528;2024-01-16T09:35:19;9.45;;;5.53;;
66830;SDS011;53739;44.224;22.528;2024-01-16T09:37:47;13.07;;;8.35;;
66830;SDS011;53739;44.224;22.528;2024-01-16T09:40:13;12.27;;;6.43;;
66830;SDS011;53739;44.224;22.528;2024-01-16T09:42:39;19.48;;;8.05;;
66830;SDS011;53739;44.224;22.528;2024-01-16T09:45:08;16.00;;;7.72;;
66830;SDS011;53739;44.224;22.528;2024-01-16T09:47:35;9.35;;;5.32;;
66830;SDS011;53739;44.224;22.528;2024-01-16T09:50:03;6.20;;;3.60;;
66830;SDS011;53739;44.224;22.528;2024-01-16T09:52:29;12.90;;;6.30;;
66830;SDS011;53739;44.224;22.528;2024-01-16T09:54:55;11.18;;;6.63;;
66830;SDS011;53739;44.224;22.528;2024-01-16T09:57:24;10.68;;;5.40;;
66830;SDS011;53739;44.224;22.528;2024-01-16T09:59:51;8.10;;;4.53;;
66830;SDS011;53739;44.224;22.528;2024-01-16T10:02:19;20.38;;;9.65;;
66830;SDS011;53739;44.224;22.528;2024-01-16T10:04:46;16.83;;;8.35;;
66830;SDS011;53739;44.224;22.528;2024-01-16T10:07:12;13.32;;;8.23;;
66830;SDS011;53739;44.224;22.528;2024-01-16T10:09:39;34.75;;;18.77;;
66830;SDS011;53739;44.224;22.528;2024-01-16T10:12:06;42.83;;;22.13;;
66830;SDS011;53739;44.224;22.528;2024-01-16T10:14:33;11.70;;;6.30;;
66830;SDS011;53739;44.224;22.528;2024-01-16T10:17:02;29.63;;;15.02;;
66830;SDS011;53739;44.224;22.528;2024-01-16T10:19:35;11.40;;;7.78;;
66830;SDS011;53739;44.224;22.528;2024-01-16T10:22:02;19.63;;;12.23;;
66830;SDS011;53739;44.224;22.528;2024-01-16T10:24:29;20.23;;;10.38;;
66830;SDS011;53739;44.224;22.528;2024-01-16T10:27:02;20.30;;;8.98;;
66830;SDS011;53739;44.224;22.528;2024-01-16T10:29:28;19.02;;;8.63;;
66830;SDS011;53739;44.224;22.528;2024-01-16T10:31:56;29.92;;;11.10;;
66830;SDS011;53739;44.224;22.528;2024-01-16T10:34:22;27.65;;;12.25;;
66830;SDS011;53739;44.224;22.528;2024-01-16T10:36:49;9.88;;;5.50;;
66830;SDS011;53739;44.224;22.528;2024-01-16T10:39:17;13.70;;;8.48;;
66830;SDS011;53739;44.224;22.528;2024-01-16T10:41:56;37.22;;;15.02;;
66830;SDS011;53739;44.224;22.528;2024-01-16T10:44:24;19.45;;;10.23;;
66830;SDS011;53739;44.224;22.528;2024-01-16T10:46:50;15.80;;;7.25;;
66830;SDS011;53739;44.224;22.528;2024-01-16T10:49:16;21.58;;;10.65;;
66830;SDS011;53739;44.224;22.528;2024-01-16T10:51:43;15.65;;;8.43;;
66830;SDS011;53739;44.224;22.528;2024-01-16T10:54:13;26.80;;;13.55;;
66830;SDS011;53739;44.224;22.528;2024-01-16T10:56:44;33.40;;;12.98;;
66830;SDS011;53739;44.224;22.528;2024-01-16T10:59:19;22.98;;;10.65;;
66830;SDS011;53739;44.224;22.528;2024-01-16T11:01:56;44.33;;;21.55;;
66830;SDS011;53739;44.224;22.528;2024-01-16T11:04:25;221.25;;;91.88;;
66830;SDS011;53739;44.224;22.528;2024-01-16T11:06:53;66.38;;;32.15;;
66830;SDS011;53739;44.224;22.528;2024-01-16T11:09:20;54.40;;;27.42;;
66830;SDS011;53739;44.224;22.528;2024-01-16T11:11:46;44.50;;;20.65;;
66830;SDS011;53739;44.224;22.528;2024-01-16T11:14:13;33.00;;;15.45;;
66830;SDS011;53739;44.224;22.528;2024-01-16T11:16:40;37.47;;;16.92;;
66830;SDS011;53739;44.224;22.528;2024-01-16T11:19:07;39.88;;;17.65;;
66830;SDS011;53739;44.224;22.528;2024-01-16T11:21:34;48.92;;;18.65;;
66830;SDS011;53739;44.224;22.528;2024-01-16T11:24:02;52.58;;;22.17;;
66830;SDS011;53739;44.224;22.528;2024-01-16T11:26:29;30.00;;;12.85;;
66830;SDS011;53739;44.224;22.528;2024-01-16T11:28:59;28.45;;;15.65;;
66830;SDS011;53739;44.224;22.528;2024-01-16T11:31:32;20.65;;;11.90;;
66830;SDS011;53739;44.224;22.528;2024-01-16T11:33:59;31.08;;;15.88;;
66830;SDS011;53739;44.224;22.528;2024-01-16T11:39:11;16.98;;;9.85;;
66830;SDS011;53739;44.224;22.528;2024-01-16T11:41:58;48.28;;;21.77;;
66830;SDS011;53739;44.224;22.528;2024-01-16T11:47:06;31.95;;;14.18;;
66830;SDS011;53739;44.224;22.528;2024-01-16T11:49:34;32.47;;;18.48;;
66830;SDS011;53739;44.224;22.528;2024-01-16T11:52:00;21.10;;;10.10;;
66830;SDS011;53739;44.224;22.528;2024-01-16T11:54:27;365.10;;;104.38;;
66830;SDS011;53739;44.224;22.528;2024-01-16T12:01:56;23.90;;;15.32;;
66830;SDS011;53739;44.224;22.528;2024-01-16T12:04:24;31.77;;;20.48;;
66830;SDS011;53739;44.224;22.528;2024-01-16T12:07:00;13.30;;;7.22;;
66830;SDS011;53739;44.224;22.528;2024-01-16T12:09:27;8.88;;;6.97;;
66830;SDS011;53739;44.224;22.528;2024-01-16T12:12:00;20.75;;;13.55;;
66830;SDS011;53739;44.224;22.528;2024-01-16T12:14:27;20.90;;;14.35;;
66830;SDS011;53739;44.224;22.528;2024-01-16T12:17:07;9.80;;;7.38;;
66830;SDS011;53739;44.224;22.528;2024-01-16T12:19:35;23.98;;;18.73;;
66830;SDS011;53739;44.224;22.528;2024-01-16T12:22:01;15.57;;;10.35;;
66830;SDS011;53739;44.224;22.528;2024-01-16T12:24:27;15.98;;;10.18;;
66830;SDS011;53739;44.224;22.528;2024-01-16T12:26:57;16.83;;;12.63;;
66830;SDS011;53739;44.224;22.528;2024-01-16T12:29:23;16.15;;;9.82;;
66830;SDS011;53739;44.224;22.528;2024-01-16T12:31:49;11.73;;;7.72;;
66830;SDS011;53739;44.224;22.528;2024-01-16T12:34:16;11.77;;;7.50;;
66830;SDS011;53739;44.224;22.528;2024-01-16T12:36:42;60.97;;;32.95;;
66830;SDS011;53739;44.224;22.528;2024-01-16T12:39:10;18.35;;;12.52;;
66830;SDS011;53739;44.224;22.528;2024-01-16T12:41:40;15.80;;;10.18;;
66830;SDS011;53739;44.224;22.528;2024-01-16T12:44:07;28.30;;;16.83;;
66830;SDS011;53739;44.224;22.528;2024-01-16T12:46:33;27.17;;;16.10;;
66830;SDS011;53739;44.224;22.528;2024-01-16T12:49:00;51.90;;;26.02;;
66830;SDS011;53739;44.224;22.528;2024-01-16T12:51:27;28.77;;;14.65;;
66830;SDS011;53739;44.224;22.528;2024-01-16T12:53:53;13.60;;;8.35;;
66830;SDS011;53739;44.224;22.528;2024-01-16T12:56:19;15.50;;;9.80;;
66830;SDS011;53739;44.224;22.528;2024-01-16T12:58:46;25.30;;;15.30;;
66830;SDS011;53739;44.224;22.528;2024-01-16T13:01:25;46.67;;;25.02;;
66830;SDS011;53739;44.224;22.528;2024-01-16T13:03:52;16.48;;;8.40;;
66830;SDS011;53739;44.224;22.528;2024-01-16T13:06:18;10.30;;;6.32;;
66830;SDS011;53739;44.224;22.528;2024-01-16T13:08:48;13.02;;;7.18;;
66830;SDS011;53739;44.224;22.528;2024-01-16T13:11:15;10.75;;;8.32;;
66830;SDS011;53739;44.224;22.528;2024-01-16T13:13:44;13.20;;;8.23;;
66830;SDS011;53739;44.224;22.528;2024-01-16T13:16:11;10.65;;;5.60;;
66830;SDS011;53739;44.224;22.528;2024-01-16T13:18:37;7.28;;;3.83;;
66830;SDS011;53739;44.224;22.528;2024-01-16T13:21:03;7.63;;;4.60;;
66830;SDS011;53739;44.224;22.528;2024-01-16T13:23:29;8.07;;;4.80;;
66830;SDS011;53739;44.224;22.528;2024-01-16T13:25:56;66.22;;;24.92;;
66830;SDS011;53739;44.224;22.528;2024-01-16T13:28:25;22.33;;;11.68;;
66830;SDS011;53739;44.224;22.528;2024-01-16T13:30:52;12.40;;;7.70;;
66830;SDS011;53739;44.224;22.528;2024-01-16T13:33:18;20.35;;;9.45;;
66830;SDS011;53739;44.224;22.528;2024-01-16T13:35:46;19.50;;;11.20;;
66830;SDS011;53739;44.224;22.528;2024-01-16T13:38:13;13.07;;;8.52;;
66830;SDS011;53739;44.224;22.528;2024-01-16T13:40:43;8.27;;;6.22;;
66830;SDS011;53739;44.224;22.528;2024-01-16T13:43:09;13.35;;;9.43;;
66830;SDS011;53739;44.224;22.528;2024-01-16T13:45:37;8.52;;;5.35;;
66830;SDS011;53739;44.224;22.528;2024-01-16T13:48:04;12.90;;;6.35;;
66830;SDS011;53739;44.224;22.528;2024-01-16T13:50:31;11.63;;;7.15;;
66830;SDS011;53739;44.224;22.528;2024-01-16T13:52:58;19.38;;;16.15;;
66830;SDS011;53739;44.224;22.528;2024-01-16T13:55:24;17.77;;;13.15;;
66830;SDS011;53739;44.224;22.528;2024-01-16T13:57:51;17.15;;;12.40;;
66830;SDS011;53739;44.224;22.528;2024-01-16T14:00:17;16.77;;;9.93;;
66830;SDS011;53739;44.224;22.528;2024-01-16T14:02:44;15.98;;;13.57;;
66830;SDS011;53739;44.224;22.528;2024-01-16T14:05:17;24.60;;;12.27;;
66830;SDS011;53739;44.224;22.528;2024-01-16T14:07:44;22.88;;;13.02;;
66830;SDS011;53739;44.224;22.528;2024-01-16T14:10:12;11.68;;;7.97;;
66830;SDS011;53739;44.224;22.528;2024-01-16T14:12:38;14.25;;;7.43;;
66830;SDS011;53739;44.224;22.528;2024-01-16T14:15:07;8.18;;;5.43;;
66830;SDS011;53739;44.224;22.528;2024-01-16T14:17:41;13.15;;;7.05;;
66830;SDS011;53739;44.224;22.528;2024-01-16T14:20:07;11.18;;;6.30;;
66830;SDS011;53739;44.224;22.528;2024-01-16T14:22:36;10.57;;;6.60;;
66830;SDS011;53739;44.224;22.528;2024-01-16T14:25:11;18.80;;;9.15;;